CheckWX is a tool to help pilots better visualize weather data.  It is not intended as a substitute for an official pre-flight weather briefing.

02:51:44 UTC

ESIA METAR
Karlsborg Air Base Airport
Karlsborg, Sweden
Current

32 mins ago

ESIA 180220Z AUTO 21007KT 2300 BR OVC002/// 04/03 Q1018
Observed
Feb-18 @ 02:20 UTC
Wind
  • 210° at 7 KTS
Visibility
2,301 meters
Flight Rules
LIFR
Conditions
Mist
Cloud Levels
  • Overcast at 200' AGL
Temperature
C / 39°F
Dewpoint
C / 37°F
Humidity
93%
Altimeter
30.06" Hg
Pressure
1017.92 hPa
Previous

1 hour ago

ESIA 180150Z AUTO 21007KT 1400 BR OVC002/// 04/03 Q1018
Observed
Feb-18 @ 01:50 UTC
Wind
  • 210° at 7 KTS
Visibility
1,400 meters
Flight Rules
LIFR
Conditions
Mist
Cloud Levels
  • Overcast at 200' AGL
Temperature
C / 39°F
Dewpoint
C / 37°F
Humidity
93%
Altimeter
30.06" Hg
Pressure
1017.92 hPa
Previous

2 hours ago

ESIA 180120Z AUTO 20008KT 1200 BR OVC002/// 03/03 Q1018
Observed
Feb-18 @ 01:20 UTC
Wind
  • 200° at 8 KTS
Visibility
1,207 meters
Flight Rules
LIFR
Conditions
Mist
Cloud Levels
  • Overcast at 200' AGL
Temperature
C / 37°F
Dewpoint
C / 37°F
Humidity
100%
Altimeter
30.06" Hg
Pressure
1017.92 hPa